sensor_id;sensor_type;location;lat;lon;timestamp;P1;durP1;ratioP1;P2;durP2;ratioP2
12556;SDS011;6344;49.932;8.308;2023-02-18T00:00:24;8.47;;;7.73;;
12556;SDS011;6344;49.932;8.308;2023-02-18T00:02:53;7.73;;;7.10;;
12556;SDS011;6344;49.932;8.308;2023-02-18T00:05:21;7.83;;;6.27;;
12556;SDS011;6344;49.932;8.308;2023-02-18T00:07:47;7.73;;;7.13;;
12556;SDS011;6344;49.932;8.308;2023-02-18T00:10:14;7.50;;;6.80;;
12556;SDS011;6344;49.932;8.308;2023-02-18T00:12:41;7.70;;;7.00;;
12556;SDS011;6344;49.932;8.308;2023-02-18T00:15:08;4.37;;;3.97;;
12556;SDS011;6344;49.932;8.308;2023-02-18T00:17:35;6.10;;;5.63;;
12556;SDS011;6344;49.932;8.308;2023-02-18T00:20:04;4.57;;;4.17;;
12556;SDS011;6344;49.932;8.308;2023-02-18T00:22:33;5.57;;;5.17;;
12556;SDS011;6344;49.932;8.308;2023-02-18T00:25:00;5.67;;;5.27;;
12556;SDS011;6344;49.932;8.308;2023-02-18T00:27:26;4.97;;;4.57;;
12556;SDS011;6344;49.932;8.308;2023-02-18T00:29:53;4.33;;;3.93;;
12556;SDS011;6344;49.932;8.308;2023-02-18T00:32:20;4.87;;;4.40;;
12556;SDS011;6344;49.932;8.308;2023-02-18T00:34:46;4.97;;;4.67;;
12556;SDS011;6344;49.932;8.308;2023-02-18T00:37:14;4.10;;;3.80;;
12556;SDS011;6344;49.932;8.308;2023-02-18T00:39:41;4.63;;;4.33;;
12556;SDS011;6344;49.932;8.308;2023-02-18T00:42:08;4.30;;;3.17;;
12556;SDS011;6344;49.932;8.308;2023-02-18T00:44:34;4.23;;;3.93;;
12556;SDS011;6344;49.932;8.308;2023-02-18T00:47:01;4.40;;;4.10;;
12556;SDS011;6344;49.932;8.308;2023-02-18T00:49:28;4.90;;;4.60;;
12556;SDS011;6344;49.932;8.308;2023-02-18T00:51:55;5.97;;;5.20;;
12556;SDS011;6344;49.932;8.308;2023-02-18T00:54:23;5.00;;;4.63;;
12556;SDS011;6344;49.932;8.308;2023-02-18T00:56:49;3.87;;;3.47;;
12556;SDS011;6344;49.932;8.308;2023-02-18T00:59:16;4.50;;;4.10;;
12556;SDS011;6344;49.932;8.308;2023-02-18T01:01:43;3.70;;;3.40;;
12556;SDS011;6344;49.932;8.308;2023-02-18T01:04:09;4.10;;;3.80;;
12556;SDS011;6344;49.932;8.308;2023-02-18T01:06:37;4.53;;;4.23;;
12556;SDS011;6344;49.932;8.308;2023-02-18T01:09:03;3.10;;;2.80;;
12556;SDS011;6344;49.932;8.308;2023-02-18T01:11:32;3.27;;;2.97;;
12556;SDS011;6344;49.932;8.308;2023-02-18T01:13:59;6.00;;;3.40;;
12556;SDS011;6344;49.932;8.308;2023-02-18T01:16:25;3.83;;;3.53;;
12556;SDS011;6344;49.932;8.308;2023-02-18T01:18:52;3.70;;;3.40;;
12556;SDS011;6344;49.932;8.308;2023-02-18T01:21:19;3.33;;;3.03;;
12556;SDS011;6344;49.932;8.308;2023-02-18T01:23:46;3.40;;;3.10;;
12556;SDS011;6344;49.932;8.308;2023-02-18T01:26:12;3.30;;;2.30;;
12556;SDS011;6344;49.932;8.308;2023-02-18T01:28:40;3.40;;;3.20;;
12556;SDS011;6344;49.932;8.308;2023-02-18T01:31:08;2.63;;;2.43;;
12556;SDS011;6344;49.932;8.308;2023-02-18T01:33:36;2.40;;;2.20;;
12556;SDS011;6344;49.932;8.308;2023-02-18T01:36:02;2.00;;;1.80;;
12556;SDS011;6344;49.932;8.308;2023-02-18T01:38:30;2.27;;;2.00;;
12556;SDS011;6344;49.932;8.308;2023-02-18T01:40:57;3.50;;;2.47;;
12556;SDS011;6344;49.932;8.308;2023-02-18T01:43:24;1.73;;;1.63;;
12556;SDS011;6344;49.932;8.308;2023-02-18T01:45:59;1.70;;;1.47;;
12556;SDS011;6344;49.932;8.308;2023-02-18T01:48:31;2.13;;;1.87;;
12556;SDS011;6344;49.932;8.308;2023-02-18T01:51:02;1.87;;;1.70;;
12556;SDS011;6344;49.932;8.308;2023-02-18T01:53:35;2.00;;;1.90;;
12556;SDS011;6344;49.932;8.308;2023-02-18T01:56:07;2.23;;;1.70;;
12556;SDS011;6344;49.932;8.308;2023-02-18T01:58:37;2.27;;;2.07;;
12556;SDS011;6344;49.932;8.308;2023-02-18T02:01:06;2.57;;;2.10;;
12556;SDS011;6344;49.932;8.308;2023-02-18T02:03:34;2.33;;;1.93;;
12556;SDS011;6344;49.932;8.308;2023-02-18T02:06:00;1.87;;;1.77;;
12556;SDS011;6344;49.932;8.308;2023-02-18T02:08:27;1.97;;;1.77;;
12556;SDS011;6344;49.932;8.308;2023-02-18T02:10:59;2.20;;;2.00;;
12556;SDS011;6344;49.932;8.308;2023-02-18T02:13:35;2.63;;;2.43;;
12556;SDS011;6344;49.932;8.308;2023-02-18T02:16:17;2.27;;;2.17;;
12556;SDS011;6344;49.932;8.308;2023-02-18T02:18:55;2.60;;;2.40;;
12556;SDS011;6344;49.932;8.308;2023-02-18T02:21:39;2.30;;;2.10;;
12556;SDS011;6344;49.932;8.308;2023-02-18T02:27:36;2.40;;;2.20;;
12556;SDS011;6344;49.932;8.308;2023-02-18T02:30:26;3.13;;;2.50;;
12556;SDS011;6344;49.932;8.308;2023-02-18T02:33:23;2.63;;;2.43;;
12556;SDS011;6344;49.932;8.308;2023-02-18T02:36:07;2.57;;;2.37;;
12556;SDS011;6344;49.932;8.308;2023-02-18T02:38:39;2.70;;;2.50;;
12556;SDS011;6344;49.932;8.308;2023-02-18T02:41:17;2.63;;;2.43;;
12556;SDS011;6344;49.932;8.308;2023-02-18T02:44:00;2.47;;;2.20;;
12556;SDS011;6344;49.932;8.308;2023-02-18T02:46:37;2.30;;;2.10;;
12556;SDS011;6344;49.932;8.308;2023-02-18T02:49:07;2.80;;;2.60;;
12556;SDS011;6344;49.932;8.308;2023-02-18T02:51:42;2.63;;;2.43;;
12556;SDS011;6344;49.932;8.308;2023-02-18T02:54:14;2.37;;;2.20;;
12556;SDS011;6344;49.932;8.308;2023-02-18T02:56:42;2.50;;;2.30;;
12556;SDS011;6344;49.932;8.308;2023-02-18T02:59:09;1.83;;;1.73;;
12556;SDS011;6344;49.932;8.308;2023-02-18T03:01:41;2.53;;;2.33;;
12556;SDS011;6344;49.932;8.308;2023-02-18T03:04:22;2.50;;;2.37;;
12556;SDS011;6344;49.932;8.308;2023-02-18T03:07:21;2.57;;;2.37;;
12556;SDS011;6344;49.932;8.308;2023-02-18T03:10:13;2.83;;;2.60;;
12556;SDS011;6344;49.932;8.308;2023-02-18T03:12:52;2.60;;;2.40;;
12556;SDS011;6344;49.932;8.308;2023-02-18T03:15:30;2.63;;;2.43;;
12556;SDS011;6344;49.932;8.308;2023-02-18T03:18:04;3.07;;;2.87;;
12556;SDS011;6344;49.932;8.308;2023-02-18T03:20:40;2.70;;;2.50;;
12556;SDS011;6344;49.932;8.308;2023-02-18T03:23:14;2.97;;;2.77;;
12556;SDS011;6344;49.932;8.308;2023-02-18T03:25:43;3.40;;;3.13;;
12556;SDS011;6344;49.932;8.308;2023-02-18T03:28:11;3.43;;;2.70;;
12556;SDS011;6344;49.932;8.308;2023-02-18T03:30:41;3.00;;;2.80;;
12556;SDS011;6344;49.932;8.308;2023-02-18T03:33:12;2.80;;;2.60;;
12556;SDS011;6344;49.932;8.308;2023-02-18T03:35:42;3.20;;;2.90;;
12556;SDS011;6344;49.932;8.308;2023-02-18T03:38:11;2.83;;;2.63;;
12556;SDS011;6344;49.932;8.308;2023-02-18T03:40:43;3.47;;;3.17;;
12556;SDS011;6344;49.932;8.308;2023-02-18T03:43:10;3.43;;;3.17;;
12556;SDS011;6344;49.932;8.308;2023-02-18T03:45:37;3.03;;;2.73;;
12556;SDS011;6344;49.932;8.308;2023-02-18T03:48:04;3.60;;;3.33;;
12556;SDS011;6344;49.932;8.308;2023-02-18T03:50:31;3.10;;;2.90;;
12556;SDS011;6344;49.932;8.308;2023-02-18T03:52:58;2.73;;;2.53;;
12556;SDS011;6344;49.932;8.308;2023-02-18T03:55:26;2.03;;;1.90;;
12556;SDS011;6344;49.932;8.308;2023-02-18T03:57:52;1.90;;;1.50;;
12556;SDS011;6344;49.932;8.308;2023-02-18T04:00:19;2.10;;;1.90;;
12556;SDS011;6344;49.932;8.308;2023-02-18T04:02:46;1.80;;;1.70;;
12556;SDS011;6344;49.932;8.308;2023-02-18T04:05:13;2.10;;;2.00;;
12556;SDS011;6344;49.932;8.308;2023-02-18T04:07:40;2.03;;;1.93;;
12556;SDS011;6344;49.932;8.308;2023-02-18T04:10:07;2.63;;;2.00;;
12556;SDS011;6344;49.932;8.308;2023-02-18T04:12:35;2.73;;;2.53;;
12556;SDS011;6344;49.932;8.308;2023-02-18T04:15:02;3.07;;;2.87;;
12556;SDS011;6344;49.932;8.308;2023-02-18T04:17:29;2.60;;;2.40;;
12556;SDS011;6344;49.932;8.308;2023-02-18T04:19:56;3.20;;;3.00;;
12556;SDS011;6344;49.932;8.308;2023-02-18T04:22:23;3.40;;;3.10;;
12556;SDS011;6344;49.932;8.308;2023-02-18T04:24:50;3.83;;;3.63;;
12556;SDS011;6344;49.932;8.308;2023-02-18T04:27:16;3.27;;;2.97;;
12556;SDS011;6344;49.932;8.308;2023-02-18T04:29:44;3.63;;;3.33;;
12556;SDS011;6344;49.932;8.308;2023-02-18T04:32:11;3.33;;;3.10;;
12556;SDS011;6344;49.932;8.308;2023-02-18T04:34:37;6.27;;;3.50;;
12556;SDS011;6344;49.932;8.308;2023-02-18T04:37:04;3.77;;;3.50;;
12556;SDS011;6344;49.932;8.308;2023-02-18T04:39:31;4.30;;;4.00;;
12556;SDS011;6344;49.932;8.308;2023-02-18T04:41:57;4.10;;;3.80;;
12556;SDS011;6344;49.932;8.308;2023-02-18T04:44:24;5.00;;;3.70;;
12556;SDS011;6344;49.932;8.308;2023-02-18T04:46:52;3.60;;;3.40;;
12556;SDS011;6344;49.932;8.308;2023-02-18T04:49:18;3.73;;;3.53;;
12556;SDS011;6344;49.932;8.308;2023-02-18T04:51:45;4.43;;;4.03;;
12556;SDS011;6344;49.932;8.308;2023-02-18T04:54:12;4.27;;;3.97;;
12556;SDS011;6344;49.932;8.308;2023-02-18T04:56:39;3.67;;;3.37;;
12556;SDS011;6344;49.932;8.308;2023-02-18T04:59:05;3.53;;;3.30;;
12556;SDS011;6344;49.932;8.308;2023-02-18T05:01:32;3.90;;;3.67;;
12556;SDS011;6344;49.932;8.308;2023-02-18T05:04:00;3.80;;;3.00;;
12556;SDS011;6344;49.932;8.308;2023-02-18T05:06:26;4.33;;;3.57;;
12556;SDS011;6344;49.932;8.308;2023-02-18T05:08:53;3.90;;;2.70;;
12556;SDS011;6344;49.932;8.308;2023-02-18T05:11:20;3.27;;;2.80;;
12556;SDS011;6344;49.932;8.308;2023-02-18T05:13:46;3.73;;;2.97;;
12556;SDS011;6344;49.932;8.308;2023-02-18T05:16:13;3.50;;;3.30;;
12556;SDS011;6344;49.932;8.308;2023-02-18T05:18:40;3.50;;;3.20;;
12556;SDS011;6344;49.932;8.308;2023-02-18T05:21:08;3.40;;;3.10;;
12556;SDS011;6344;49.932;8.308;2023-02-18T05:23:36;2.57;;;2.37;;
12556;SDS011;6344;49.932;8.308;2023-02-18T05:26:03;3.00;;;2.80;;
12556;SDS011;6344;49.932;8.308;2023-02-18T05:28:29;2.97;;;2.77;;
12556;SDS011;6344;49.932;8.308;2023-02-18T05:30:56;3.77;;;2.40;;
12556;SDS011;6344;49.932;8.308;2023-02-18T05:33:23;3.20;;;2.90;;
12556;SDS011;6344;49.932;8.308;2023-02-18T05:35:49;4.53;;;4.23;;
12556;SDS011;6344;49.932;8.308;2023-02-18T05:38:17;3.80;;;3.60;;
12556;SDS011;6344;49.932;8.308;2023-02-18T05:40:44;3.53;;;3.33;;
12556;SDS011;6344;49.932;8.308;2023-02-18T05:43:11;4.07;;;3.77;;
12556;SDS011;6344;49.932;8.308;2023-02-18T05:45:38;4.87;;;4.47;;
12556;SDS011;6344;49.932;8.308;2023-02-18T05:48:05;5.30;;;4.80;;
12556;SDS011;6344;49.932;8.308;2023-02-18T05:50:32;4.20;;;3.53;;
12556;SDS011;6344;49.932;8.308;2023-02-18T05:52:59;3.67;;;3.30;;
12556;SDS011;6344;49.932;8.308;2023-02-18T05:55:27;4.00;;;3.80;;
12556;SDS011;6344;49.932;8.308;2023-02-18T05:57:53;4.13;;;3.83;;
12556;SDS011;6344;49.932;8.308;2023-02-18T06:00:20;3.50;;;3.30;;
12556;SDS011;6344;49.932;8.308;2023-02-18T06:02:47;4.07;;;3.77;;
12556;SDS011;6344;49.932;8.308;2023-02-18T06:05:14;4.60;;;4.20;;
12556;SDS011;6344;49.932;8.308;2023-02-18T06:07:40;4.70;;;4.40;;
12556;SDS011;6344;49.932;8.308;2023-02-18T06:10:08;5.23;;;3.63;;
12556;SDS011;6344;49.932;8.308;2023-02-18T06:12:36;5.40;;;4.90;;
12556;SDS011;6344;49.932;8.308;2023-02-18T06:15:03;3.00;;;2.60;;
12556;SDS011;6344;49.932;8.308;2023-02-18T06:17:31;3.83;;;3.53;;
12556;SDS011;6344;49.932;8.308;2023-02-18T06:19:57;3.53;;;3.33;;
12556;SDS011;6344;49.932;8.308;2023-02-18T06:22:24;4.40;;;4.00;;
12556;SDS011;6344;49.932;8.308;2023-02-18T06:24:50;4.67;;;4.33;;
12556;SDS011;6344;49.932;8.308;2023-02-18T06:27:17;5.37;;;4.87;;
12556;SDS011;6344;49.932;8.308;2023-02-18T06:29:45;3.30;;;3.10;;
12556;SDS011;6344;49.932;8.308;2023-02-18T06:32:12;4.33;;;3.93;;
12556;SDS011;6344;49.932;8.308;2023-02-18T06:34:38;4.13;;;3.73;;
12556;SDS011;6344;49.932;8.308;2023-02-18T06:37:05;3.73;;;3.50;;
12556;SDS011;6344;49.932;8.308;2023-02-18T06:39:32;4.10;;;3.73;;
12556;SDS011;6344;49.932;8.308;2023-02-18T06:41:58;2.93;;;2.73;;
12556;SDS011;6344;49.932;8.308;2023-02-18T06:44:25;2.77;;;2.57;;
12556;SDS011;6344;49.932;8.308;2023-02-18T06:46:53;3.50;;;3.30;;
12556;SDS011;6344;49.932;8.308;2023-02-18T06:49:19;4.53;;;3.00;;
12556;SDS011;6344;49.932;8.308;2023-02-18T06:51:46;3.77;;;3.47;;
12556;SDS011;6344;49.932;8.308;2023-02-18T06:54:13;3.83;;;3.50;;
12556;SDS011;6344;49.932;8.308;2023-02-18T06:56:39;4.47;;;4.17;;
12556;SDS011;6344;49.932;8.308;2023-02-18T06:59:06;3.67;;;3.47;;
12556;SDS011;6344;49.932;8.308;2023-02-18T07:01:33;3.27;;;3.07;;
12556;SDS011;6344;49.932;8.308;2023-02-18T07:04:01;3.80;;;3.50;;
12556;SDS011;6344;49.932;8.308;2023-02-18T07:06:28;3.70;;;3.50;;
12556;SDS011;6344;49.932;8.308;2023-02-18T07:08:54;4.40;;;4.07;;
12556;SDS011;6344;49.932;8.308;2023-02-18T07:11:21;4.77;;;4.23;;
12556;SDS011;6344;49.932;8.308;2023-02-18T07:13:47;4.23;;;3.93;;
12556;SDS011;6344;49.932;8.308;2023-02-18T07:16:14;4.63;;;4.33;;
12556;SDS011;6344;49.932;8.308;2023-02-18T07:18:41;4.47;;;4.17;;
12556;SDS011;6344;49.932;8.308;2023-02-18T07:21:09;5.10;;;4.70;;
12556;SDS011;6344;49.932;8.308;2023-02-18T07:23:35;5.77;;;5.27;;
12556;SDS011;6344;49.932;8.308;2023-02-18T07:26:03;5.47;;;5.07;;
12556;SDS011;6344;49.932;8.308;2023-02-18T07:28:31;5.17;;;4.77;;
12556;SDS011;6344;49.932;8.308;2023-02-18T07:30:57;5.10;;;4.77;;
12556;SDS011;6344;49.932;8.308;2023-02-18T07:33:24;4.63;;;3.73;;
12556;SDS011;6344;49.932;8.308;2023-02-18T07:35:52;5.53;;;5.03;;
12556;SDS011;6344;49.932;8.308;2023-02-18T07:38:21;6.33;;;5.73;;
12556;SDS011;6344;49.932;8.308;2023-02-18T07:40:48;5.70;;;5.30;;
12556;SDS011;6344;49.932;8.308;2023-02-18T07:43:15;5.37;;;4.97;;
12556;SDS011;6344;49.932;8.308;2023-02-18T07:45:42;5.63;;;5.13;;
12556;SDS011;6344;49.932;8.308;2023-02-18T07:48:08;5.20;;;4.80;;
12556;SDS011;6344;49.932;8.308;2023-02-18T07:50:37;6.20;;;5.40;;
12556;SDS011;6344;49.932;8.308;2023-02-18T07:53:05;4.70;;;4.40;;
12556;SDS011;6344;49.932;8.308;2023-02-18T07:55:33;5.80;;;5.40;;
12556;SDS011;6344;49.932;8.308;2023-02-18T07:58:16;6.37;;;5.80;;
12556;SDS011;6344;49.932;8.308;2023-02-18T08:00:46;6.20;;;5.47;;
12556;SDS011;6344;49.932;8.308;2023-02-18T08:03:14;6.80;;;6.20;;
12556;SDS011;6344;49.932;8.308;2023-02-18T08:05:42;5.50;;;5.10;;
12556;SDS011;6344;49.932;8.308;2023-02-18T08:08:11;5.63;;;5.23;;
12556;SDS011;6344;49.932;8.308;2023-02-18T08:10:40;6.07;;;5.53;;
12556;SDS011;6344;49.932;8.308;2023-02-18T08:13:07;5.20;;;4.80;;
12556;SDS011;6344;49.932;8.308;2023-02-18T08:15:34;6.10;;;5.60;;
12556;SDS011;6344;49.932;8.308;2023-02-18T08:18:01;6.70;;;6.20;;
12556;SDS011;6344;49.932;8.308;2023-02-18T08:20:27;6.23;;;5.73;;
12556;SDS011;6344;49.932;8.308;2023-02-18T08:22:54;5.43;;;5.03;;
12556;SDS011;6344;49.932;8.308;2023-02-18T08:25:21;6.60;;;6.10;;
12556;SDS011;6344;49.932;8.308;2023-02-18T08:27:49;6.97;;;6.47;;
12556;SDS011;6344;49.932;8.308;2023-02-18T08:30:16;5.90;;;5.50;;
12556;SDS011;6344;49.932;8.308;2023-02-18T08:32:42;4.93;;;4.53;;
12556;SDS011;6344;49.932;8.308;2023-02-18T08:35:09;5.17;;;4.67;;
12556;SDS011;6344;49.932;8.308;2023-02-18T08:37:36;5.73;;;5.23;;
12556;SDS011;6344;49.932;8.308;2023-02-18T08:40:04;5.07;;;4.67;;
12556;SDS011;6344;49.932;8.308;2023-02-18T08:42:32;6.27;;;5.63;;
12556;SDS011;6344;49.932;8.308;2023-02-18T08:45:00;6.03;;;5.63;;
12556;SDS011;6344;49.932;8.308;2023-02-18T08:47:26;6.77;;;6.17;;
12556;SDS011;6344;49.932;8.308;2023-02-18T08:49:53;6.03;;;5.53;;
12556;SDS011;6344;49.932;8.308;2023-02-18T08:52:21;6.40;;;6.00;;
12556;SDS011;6344;49.932;8.308;2023-02-18T08:54:48;5.23;;;4.83;;
12556;SDS011;6344;49.932;8.308;2023-02-18T08:57:14;3.23;;;3.03;;
12556;SDS011;6344;49.932;8.308;2023-02-18T08:59:41;3.80;;;3.60;;
12556;SDS011;6344;49.932;8.308;2023-02-18T09:02:09;4.23;;;3.50;;
12556;SDS011;6344;49.932;8.308;2023-02-18T09:04:38;3.80;;;2.70;;
12556;SDS011;6344;49.932;8.308;2023-02-18T09:07:05;2.73;;;2.53;;
12556;SDS011;6344;49.932;8.308;2023-02-18T09:09:31;2.90;;;2.70;;
12556;SDS011;6344;49.932;8.308;2023-02-18T09:11:58;3.87;;;2.33;;
12556;SDS011;6344;49.932;8.308;2023-02-18T09:14:25;2.33;;;1.80;;
12556;SDS011;6344;49.932;8.308;2023-02-18T09:16:51;1.40;;;1.30;;
12556;SDS011;6344;49.932;8.308;2023-02-18T09:19:19;1.97;;;1.70;;
12556;SDS011;6344;49.932;8.308;2023-02-18T09:21:46;1.27;;;1.17;;
12556;SDS011;6344;49.932;8.308;2023-02-18T09:24:13;1.60;;;1.50;;
12556;SDS011;6344;49.932;8.308;2023-02-18T09:26:39;1.50;;;1.40;;
12556;SDS011;6344;49.932;8.308;2023-02-18T09:29:06;1.10;;;1.00;;
12556;SDS011;6344;49.932;8.308;2023-02-18T09:31:34;1.73;;;1.33;;
12556;SDS011;6344;49.932;8.308;2023-02-18T09:34:03;1.20;;;1.10;;
12556;SDS011;6344;49.932;8.308;2023-02-18T09:36:31;1.50;;;1.40;;
12556;SDS011;6344;49.932;8.308;2023-02-18T09:38:58;1.60;;;1.50;;
12556;SDS011;6344;49.932;8.308;2023-02-18T09:41:27;2.33;;;1.50;;
12556;SDS011;6344;49.932;8.308;2023-02-18T09:44:00;1.60;;;1.50;;
12556;SDS011;6344;49.932;8.308;2023-02-18T09:46:31;5.13;;;1.67;;
12556;SDS011;6344;49.932;8.308;2023-02-18T09:49:01;1.60;;;1.50;;
12556;SDS011;6344;49.932;8.308;2023-02-18T09:51:29;2.10;;;2.00;;
12556;SDS011;6344;49.932;8.308;2023-02-18T09:53:57;1.77;;;1.63;;
12556;SDS011;6344;49.932;8.308;2023-02-18T09:56:25;1.57;;;1.47;;
12556;SDS011;6344;49.932;8.308;2023-02-18T09:58:54;1.60;;;1.50;;
12556;SDS011;6344;49.932;8.308;2023-02-18T10:01:24;1.60;;;1.30;;
12556;SDS011;6344;49.932;8.308;2023-02-18T10:03:55;2.60;;;1.50;;
12556;SDS011;6344;49.932;8.308;2023-02-18T10:06:25;1.47;;;1.30;;
12556;SDS011;6344;49.932;8.308;2023-02-18T10:08:57;2.10;;;1.53;;
12556;SDS011;6344;49.932;8.308;2023-02-18T10:11:27;1.30;;;1.20;;
12556;SDS011;6344;49.932;8.308;2023-02-18T10:13:55;1.67;;;1.57;;
12556;SDS011;6344;49.932;8.308;2023-02-18T10:16:25;1.40;;;1.30;;
12556;SDS011;6344;49.932;8.308;2023-02-18T10:18:52;1.27;;;1.17;;
12556;SDS011;6344;49.932;8.308;2023-02-18T10:21:23;1.40;;;1.30;;
12556;SDS011;6344;49.932;8.308;2023-02-18T10:23:53;3.40;;;1.30;;
12556;SDS011;6344;49.932;8.308;2023-02-18T10:26:25;1.30;;;1.20;;
12556;SDS011;6344;49.932;8.308;2023-02-18T10:28:53;1.43;;;1.33;;
12556;SDS011;6344;49.932;8.308;2023-02-18T10:31:21;1.27;;;1.17;;
12556;SDS011;6344;49.932;8.308;2023-02-18T10:33:56;1.80;;;1.20;;
12556;SDS011;6344;49.932;8.308;2023-02-18T10:36:30;1.77;;;1.23;;
12556;SDS011;6344;49.932;8.308;2023-02-18T10:39:16;1.83;;;1.73;;
12556;SDS011;6344;49.932;8.308;2023-02-18T10:42:00;1.57;;;1.47;;
12556;SDS011;6344;49.932;8.308;2023-02-18T10:44:36;1.50;;;1.40;;
12556;SDS011;6344;49.932;8.308;2023-02-18T10:47:10;1.20;;;1.10;;
12556;SDS011;6344;49.932;8.308;2023-02-18T10:49:51;1.20;;;1.10;;
12556;SDS011;6344;49.932;8.308;2023-02-18T10:52:22;2.33;;;1.57;;
12556;SDS011;6344;49.932;8.308;2023-02-18T10:54:53;1.30;;;1.13;;
12556;SDS011;6344;49.932;8.308;2023-02-18T10:57:26;1.33;;;1.20;;
12556;SDS011;6344;49.932;8.308;2023-02-18T10:59:54;1.60;;;1.00;;
12556;SDS011;6344;49.932;8.308;2023-02-18T11:02:27;2.43;;;1.50;;
12556;SDS011;6344;49.932;8.308;2023-02-18T11:04:56;2.13;;;1.13;;
12556;SDS011;6344;49.932;8.308;2023-02-18T11:07:28;1.83;;;1.40;;
12556;SDS011;6344;49.932;8.308;2023-02-18T11:09:58;1.93;;;1.60;;
12556;SDS011;6344;49.932;8.308;2023-02-18T11:12:29;1.90;;;1.70;;
12556;SDS011;6344;49.932;8.308;2023-02-18T11:15:14;2.30;;;2.10;;
12556;SDS011;6344;49.932;8.308;2023-02-18T11:17:44;2.67;;;1.97;;
12556;SDS011;6344;49.932;8.308;2023-02-18T11:20:20;2.10;;;2.00;;
12556;SDS011;6344;49.932;8.308;2023-02-18T11:22:50;1.93;;;1.43;;
12556;SDS011;6344;49.932;8.308;2023-02-18T11:25:18;1.73;;;1.63;;
12556;SDS011;6344;49.932;8.308;2023-02-18T11:27:49;1.90;;;1.80;;
12556;SDS011;6344;49.932;8.308;2023-02-18T11:30:20;1.80;;;1.70;;
12556;SDS011;6344;49.932;8.308;2023-02-18T11:32:51;1.33;;;1.23;;
12556;SDS011;6344;49.932;8.308;2023-02-18T11:35:21;5.03;;;2.50;;
12556;SDS011;6344;49.932;8.308;2023-02-18T11:37:50;2.20;;;2.00;;
12556;SDS011;6344;49.932;8.308;2023-02-18T11:40:21;1.83;;;1.70;;
12556;SDS011;6344;49.932;8.308;2023-02-18T11:42:51;1.60;;;1.50;;
12556;SDS011;6344;49.932;8.308;2023-02-18T11:45:30;2.40;;;1.57;;
12556;SDS011;6344;49.932;8.308;2023-02-18T11:47:59;2.77;;;1.83;;
12556;SDS011;6344;49.932;8.308;2023-02-18T11:50:29;1.83;;;1.20;;
12556;SDS011;6344;49.932;8.308;2023-02-18T11:52:58;1.80;;;1.70;;
12556;SDS011;6344;49.932;8.308;2023-02-18T11:55:25;2.90;;;1.63;;
12556;SDS011;6344;49.932;8.308;2023-02-18T11:57:57;2.57;;;1.57;;
12556;SDS011;6344;49.932;8.308;2023-02-18T12:00:29;2.83;;;2.00;;
12556;SDS011;6344;49.932;8.308;2023-02-18T12:03:03;2.20;;;2.00;;
12556;SDS011;6344;49.932;8.308;2023-02-18T12:05:37;1.60;;;1.37;;
12556;SDS011;6344;49.932;8.308;2023-02-18T12:08:06;2.67;;;2.47;;
12556;SDS011;6344;49.932;8.308;2023-02-18T12:10:39;2.73;;;1.90;;
12556;SDS011;6344;49.932;8.308;2023-02-18T12:13:15;2.43;;;2.07;;
12556;SDS011;6344;49.932;8.308;2023-02-18T12:15:51;2.20;;;1.90;;
12556;SDS011;6344;49.932;8.308;2023-02-18T12:18:32;2.73;;;1.43;;
12556;SDS011;6344;49.932;8.308;2023-02-18T12:21:29;4.30;;;1.70;;
12556;SDS011;6344;49.932;8.308;2023-02-18T12:24:06;2.37;;;2.17;;
12556;SDS011;6344;49.932;8.308;2023-02-18T12:26:44;2.00;;;1.80;;
12556;SDS011;6344;49.932;8.308;2023-02-18T12:29:25;3.00;;;2.00;;
12556;SDS011;6344;49.932;8.308;2023-02-18T12:32:11;1.67;;;1.57;;
12556;SDS011;6344;49.932;8.308;2023-02-18T12:34:57;4.37;;;1.80;;
12556;SDS011;6344;49.932;8.308;2023-02-18T12:37:44;2.87;;;1.60;;
12556;SDS011;6344;49.932;8.308;2023-02-18T12:40:24;3.07;;;1.80;;
12556;SDS011;6344;49.932;8.308;2023-02-18T12:43:04;2.53;;;1.90;;
12556;SDS011;6344;49.932;8.308;2023-02-18T12:45:51;1.87;;;1.77;;
12556;SDS011;6344;49.932;8.308;2023-02-18T12:48:43;2.13;;;1.77;;
12556;SDS011;6344;49.932;8.308;2023-02-18T12:51:24;2.20;;;2.00;;
12556;SDS011;6344;49.932;8.308;2023-02-18T12:54:13;1.97;;;1.87;;
12556;SDS011;6344;49.932;8.308;2023-02-18T12:57:03;1.60;;;1.33;;
12556;SDS011;6344;49.932;8.308;2023-02-18T12:59:53;3.00;;;2.60;;
12556;SDS011;6344;49.932;8.308;2023-02-18T13:02:41;3.10;;;2.53;;
12556;SDS011;6344;49.932;8.308;2023-02-18T13:05:30;2.13;;;2.03;;
12556;SDS011;6344;49.932;8.308;2023-02-18T13:08:10;2.30;;;2.20;;
12556;SDS011;6344;49.932;8.308;2023-02-18T13:10:51;2.37;;;2.17;;
12556;SDS011;6344;49.932;8.308;2023-02-18T13:13:28;2.43;;;2.20;;
12556;SDS011;6344;49.932;8.308;2023-02-18T13:15:58;4.00;;;2.27;;
12556;SDS011;6344;49.932;8.308;2023-02-18T13:18:31;3.90;;;2.67;;
12556;SDS011;6344;49.932;8.308;2023-02-18T13:21:02;3.97;;;2.23;;
12556;SDS011;6344;49.932;8.308;2023-02-18T13:23:31;5.80;;;2.50;;
12556;SDS011;6344;49.932;8.308;2023-02-18T13:26:01;2.90;;;2.60;;
12556;SDS011;6344;49.932;8.308;2023-02-18T13:28:33;1.87;;;1.77;;
12556;SDS011;6344;49.932;8.308;2023-02-18T13:31:11;2.97;;;2.77;;
12556;SDS011;6344;49.932;8.308;2023-02-18T13:33:49;3.53;;;1.93;;
12556;SDS011;6344;49.932;8.308;2023-02-18T13:36:24;2.97;;;2.67;;
12556;SDS011;6344;49.932;8.308;2023-02-18T13:39:03;2.80;;;2.37;;
12556;SDS011;6344;49.932;8.308;2023-02-18T13:41:35;4.90;;;2.30;;
12556;SDS011;6344;49.932;8.308;2023-02-18T13:44:07;2.07;;;1.87;;
12556;SDS011;6344;49.932;8.308;2023-02-18T13:46:46;2.13;;;1.93;;
12556;SDS011;6344;49.932;8.308;2023-02-18T13:49:15;3.43;;;1.93;;
12556;SDS011;6344;49.932;8.308;2023-02-18T13:51:46;1.93;;;1.83;;
12556;SDS011;6344;49.932;8.308;2023-02-18T13:54:16;1.90;;;1.80;;
12556;SDS011;6344;49.932;8.308;2023-02-18T13:56:49;2.17;;;2.00;;
12556;SDS011;6344;49.932;8.308;2023-02-18T13:59:19;2.27;;;1.60;;
12556;SDS011;6344;49.932;8.308;2023-02-18T14:01:50;3.63;;;2.37;;
12556;SDS011;6344;49.932;8.308;2023-02-18T14:04:35;2.60;;;2.40;;
12556;SDS011;6344;49.932;8.308;2023-02-18T14:07:28;4.00;;;2.33;;
12556;SDS011;6344;49.932;8.308;2023-02-18T14:10:04;9.03;;;2.20;;
12556;SDS011;6344;49.932;8.308;2023-02-18T14:12:36;1.63;;;1.53;;
12556;SDS011;6344;49.932;8.308;2023-02-18T14:18:09;2.43;;;1.93;;
12556;SDS011;6344;49.932;8.308;2023-02-18T14:20:50;3.40;;;1.80;;
12556;SDS011;6344;49.932;8.308;2023-02-18T14:26:07;3.57;;;2.33;;
12556;SDS011;6344;49.932;8.308;2023-02-18T14:28:36;1.90;;;1.80;;
12556;SDS011;6344;49.932;8.308;2023-02-18T14:31:16;2.20;;;1.73;;
12556;SDS011;6344;49.932;8.308;2023-02-18T14:33:54;7.43;;;2.07;;
12556;SDS011;6344;49.932;8.308;2023-02-18T14:36:48;2.20;;;2.00;;
12556;SDS011;6344;49.932;8.308;2023-02-18T14:39:25;3.40;;;2.37;;
12556;SDS011;6344;49.932;8.308;2023-02-18T14:42:00;3.17;;;2.30;;
12556;SDS011;6344;49.932;8.308;2023-02-18T14:44:35;3.10;;;2.33;;
12556;SDS011;6344;49.932;8.308;2023-02-18T14:47:21;3.30;;;2.37;;
12556;SDS011;6344;49.932;8.308;2023-02-18T14:49:54;2.10;;;1.90;;
12556;SDS011;6344;49.932;8.308;2023-02-18T14:52:27;2.00;;;1.63;;
12556;SDS011;6344;49.932;8.308;2023-02-18T14:54:57;2.30;;;1.80;;
12556;SDS011;6344;49.932;8.308;2023-02-18T14:57:28;1.97;;;1.87;;
12556;SDS011;6344;49.932;8.308;2023-02-18T14:59:59;2.47;;;2.27;;
12556;SDS011;6344;49.932;8.308;2023-02-18T15:02:26;2.60;;;2.37;;
12556;SDS011;6344;49.932;8.308;2023-02-18T15:04:55;2.00;;;1.80;;
12556;SDS011;6344;49.932;8.308;2023-02-18T15:07:39;2.00;;;1.80;;
12556;SDS011;6344;49.932;8.308;2023-02-18T15:10:12;3.10;;;1.93;;
12556;SDS011;6344;49.932;8.308;2023-02-18T15:12:40;2.40;;;1.93;;
12556;SDS011;6344;49.932;8.308;2023-02-18T15:15:08;2.03;;;1.83;;
12556;SDS011;6344;49.932;8.308;2023-02-18T15:17:40;3.90;;;1.70;;
12556;SDS011;6344;49.932;8.308;2023-02-18T15:20:11;3.00;;;1.80;;
12556;SDS011;6344;49.932;8.308;2023-02-18T15:22:40;3.23;;;1.40;;
12556;SDS011;6344;49.932;8.308;2023-02-18T15:25:08;3.53;;;2.27;;
12556;SDS011;6344;49.932;8.308;2023-02-18T15:27:38;1.67;;;1.50;;
12556;SDS011;6344;49.932;8.308;2023-02-18T15:30:12;2.33;;;1.70;;